TAF KPDK
KPDK 090534Z 0906/1006 VRB03KT P6SM FEW250 TEMPO 0908/0912 2SM BR BKN004 FM091400 08004KT P6SM SCT250 FM091600 10005KT P6SM BKN250 FM100100 13006KT P6SM SCT025 BKN040 FM100400 13006KT P6SM VCSH SCT008 BKN012=
METAR KPDK
WC KPDK
WS KPDK
WV KPDK